createdAt,value
2023-04-21T00:00:40.544Z,25.90
2023-04-21T00:05:42.908Z,25.48
2023-04-21T00:10:46.795Z,25.52
2023-04-21T00:15:48.674Z,23.30
2023-04-21T00:20:50.362Z,24.27
2023-04-21T00:25:52.440Z,25.10
2023-04-21T00:30:54.489Z,24.27
2023-04-21T00:35:59.049Z,25.33
2023-04-21T00:41:02.634Z,23.27
2023-04-21T00:46:05.292Z,24.38
2023-04-21T00:51:06.927Z,24.52
2023-04-21T00:56:10.880Z,23.23
2023-04-21T01:01:13.676Z,21.95
2023-04-21T01:06:19.864Z,23.08
2023-04-21T01:11:21.703Z,25.45
2023-04-21T01:16:24.169Z,24.80
2023-04-21T01:21:29.129Z,22.08
2023-04-21T01:26:30.850Z,23.13
2023-04-21T01:31:32.483Z,22.67
2023-04-21T01:36:36.184Z,22.88
2023-04-21T01:41:37.821Z,23.42
2023-04-21T01:46:39.478Z,22.40
2023-04-21T01:51:41.105Z,23.60
2023-04-21T01:56:42.807Z,22.45
2023-04-21T02:01:44.521Z,23.85
2023-04-21T02:06:46.327Z,22.48
2023-04-21T02:11:48.045Z,23.05
2023-04-21T02:16:49.825Z,23.30
2023-04-21T02:21:51.636Z,28.60
2023-04-21T02:26:58.282Z,22.02
2023-04-21T02:32:14.255Z,23.45
2023-04-21T02:37:21.017Z,22.35
2023-04-21T02:42:22.652Z,21.23
2023-04-21T02:47:24.350Z,25.45
2023-04-21T02:52:26.015Z,22.88
2023-04-21T02:57:27.739Z,27.25
2023-04-21T03:02:29.471Z,27.25
2023-04-21T03:07:31.240Z,26.13
2023-04-21T03:12:32.999Z,26.80
2023-04-21T03:17:34.689Z,24.17
2023-04-21T03:22:36.375Z,26.60
2023-04-21T03:27:38.110Z,27.33
2023-04-21T03:32:39.727Z,29.73
2023-04-21T03:37:41.401Z,27.50
2023-04-21T03:42:43.195Z,27.80
2023-04-21T03:47:44.873Z,26.75
2023-04-21T03:52:46.536Z,24.33
2023-04-21T03:57:48.191Z,23.63
2023-04-21T04:02:49.931Z,24.48
2023-04-21T04:07:51.726Z,23.70
2023-04-21T04:12:53.373Z,23.35
2023-04-21T04:17:55.528Z,23.60
2023-04-21T04:22:57.234Z,22.33
2023-04-21T04:27:58.861Z,21.77
2023-04-21T04:33:00.513Z,25.17
2023-04-21T04:38:02.310Z,22.30
2023-04-21T04:43:03.951Z,24.58
2023-04-21T04:48:06.120Z,21.33
2023-04-21T04:53:07.764Z,23.75
2023-04-21T04:58:09.385Z,21.55
2023-04-21T05:03:11.127Z,22.77
2023-04-21T05:08:13.281Z,23.65
2023-04-21T05:13:17.713Z,22.17
2023-04-21T05:18:19.366Z,18.40
2023-04-21T05:23:21.222Z,18.20
2023-04-21T05:28:23.274Z,17.17
2023-04-21T05:33:26.855Z,16.02
2023-04-21T05:38:28.609Z,17.45
2023-04-21T05:43:33.408Z,16.08
2023-04-21T05:48:35.457Z,15.80
2023-04-21T05:53:40.344Z,14.82
2023-04-21T05:58:42.049Z,13.48
2023-04-21T06:03:43.969Z,13.23
2023-04-21T06:08:45.749Z,12.98
2023-04-21T06:13:47.893Z,14.25
2023-04-21T06:18:49.753Z,12.60
2023-04-21T06:23:51.453Z,11.30
2023-04-21T06:28:53.176Z,12.20
2023-04-21T06:33:54.781Z,14.13
2023-04-21T06:38:56.410Z,15.20
2023-04-21T06:43:58.037Z,13.88
2023-04-21T06:48:59.663Z,14.50
2023-04-21T06:54:01.628Z,15.02
2023-04-21T06:59:03.393Z,14.65
2023-04-21T07:04:06.923Z,15.25
2023-04-21T07:09:08.856Z,15.68
2023-04-21T07:14:11.056Z,9.77
2023-04-21T07:19:12.789Z,7.85
2023-04-21T07:24:14.447Z,4.57
2023-04-21T07:29:16.243Z,5.57
2023-04-21T07:34:17.889Z,5.35
2023-04-21T07:39:19.673Z,4.88
2023-04-21T07:44:21.530Z,4.85
2023-04-21T07:49:23.481Z,5.63
2023-04-21T07:54:25.484Z,5.03
2023-04-21T07:59:27.155Z,5.47
2023-04-21T08:04:29.058Z,4.32
2023-04-21T08:09:31.102Z,5.47
2023-04-21T08:14:32.879Z,4.55
2023-04-21T08:19:34.522Z,5.15
2023-04-21T08:24:36.212Z,5.00
2023-04-21T08:29:38.082Z,5.55
2023-04-21T08:34:39.812Z,4.90
2023-04-21T08:39:41.791Z,5.07
2023-04-21T08:44:43.844Z,4.32
2023-04-21T08:49:46.242Z,4.13
2023-04-21T08:54:52.020Z,4.50
2023-04-21T08:59:55.826Z,4.45
2023-04-21T09:04:59.999Z,4.35
2023-04-21T09:10:03.409Z,3.90
2023-04-21T09:15:06.112Z,3.70
2023-04-21T09:20:16.476Z,3.22
2023-04-21T09:25:22.494Z,3.58
2023-04-21T09:30:24.511Z,3.45
2023-04-21T09:35:29.918Z,2.90
2023-04-21T09:40:31.592Z,3.63
2023-04-21T09:45:40.315Z,3.53
2023-04-21T09:51:17.345Z,2.97
2023-04-21T09:56:05.964Z,2.78
2023-04-21T10:01:09.589Z,2.97
2023-04-21T10:06:11.875Z,3.13
2023-04-21T10:11:14.754Z,3.20
2023-04-21T10:16:18.042Z,3.10
2023-04-21T10:21:22.153Z,2.95
2023-04-21T10:26:24.780Z,3.15
2023-04-21T10:31:36.712Z,3.80
2023-04-21T10:36:57.344Z,3.10
2023-04-21T10:42:23.029Z,3.47
2023-04-21T10:47:38.670Z,3.72
2023-04-21T10:52:44.664Z,3.78
2023-04-21T10:57:46.784Z,2.72
2023-04-21T11:03:03.297Z,3.15
2023-04-21T11:08:13.165Z,3.03
2023-04-21T11:13:14.838Z,3.05
2023-04-21T11:18:18.103Z,2.90
2023-04-21T11:23:19.719Z,2.70
2023-04-21T11:28:22.160Z,2.30
2023-04-21T11:33:23.848Z,3.25
2023-04-21T11:38:25.729Z,3.42
2023-04-21T11:43:27.436Z,2.35
2023-04-21T11:48:30.058Z,2.88
2023-04-21T11:53:33.018Z,2.90
2023-04-21T11:58:34.978Z,3.15
2023-04-21T12:03:37.906Z,2.90
2023-04-21T12:08:40.742Z,3.42
2023-04-21T12:13:42.409Z,2.97
2023-04-21T12:18:44.464Z,2.58
2023-04-21T12:23:46.066Z,3.15
2023-04-21T12:28:47.672Z,3.05
2023-04-21T12:33:49.366Z,2.47
2023-04-21T12:38:51.203Z,3.15
2023-04-21T12:43:52.886Z,3.47
2023-04-21T12:48:54.612Z,3.17
2023-04-21T12:53:56.262Z,2.80
2023-04-21T12:58:58.422Z,2.70
2023-04-21T13:04:00.400Z,3.40
2023-04-21T13:09:02.391Z,3.00
2023-04-21T13:14:06.753Z,2.85
2023-04-21T13:19:08.461Z,2.13
2023-04-21T13:24:14.286Z,2.58
2023-04-21T13:29:16.351Z,2.30
2023-04-21T13:34:17.967Z,2.42
2023-04-21T13:39:19.911Z,2.95
2023-04-21T13:44:21.698Z,2.55
2023-04-21T13:49:23.300Z,3.05
2023-04-21T13:54:25.657Z,2.60
2023-04-21T13:59:29.036Z,2.90
2023-04-21T14:04:31.290Z,2.75
2023-04-21T14:09:33.244Z,2.50
2023-04-21T14:14:38.606Z,2.78
2023-04-21T14:19:40.895Z,2.47
2023-04-21T14:24:42.664Z,2.65
2023-04-21T14:29:44.266Z,2.60
2023-04-21T14:34:46.443Z,3.17
2023-04-21T14:39:48.073Z,2.97
2023-04-21T14:44:49.685Z,2.50
2023-04-21T14:49:55.053Z,2.50
2023-04-21T14:54:57.066Z,3.10
2023-04-21T14:59:58.707Z,3.38
2023-04-21T15:05:01.564Z,2.75
2023-04-21T15:10:03.585Z,2.72
2023-04-21T15:15:06.719Z,3.53
2023-04-21T15:20:10.217Z,2.58
2023-04-21T15:25:11.934Z,2.53
2023-04-21T15:30:14.037Z,3.45
2023-04-21T15:35:15.674Z,3.20
2023-04-21T15:40:17.303Z,2.88
2023-04-21T15:45:18.991Z,3.05
2023-04-21T15:50:20.747Z,3.42
2023-04-21T15:55:23.115Z,3.20
2023-04-21T16:00:24.819Z,2.63
2023-04-21T16:05:29.140Z,3.42
2023-04-21T16:10:31.303Z,2.95
2023-04-21T16:15:33.052Z,2.92
2023-04-21T16:20:36.086Z,3.00
2023-04-21T16:25:38.032Z,3.15
2023-04-21T16:30:43.642Z,3.63
2023-04-21T16:35:46.010Z,6.03
2023-04-21T16:40:47.956Z,5.43
2023-04-21T16:45:49.687Z,6.00
2023-04-21T16:50:53.875Z,6.07
2023-04-21T16:55:55.816Z,6.20
2023-04-21T17:00:57.639Z,7.30
2023-04-21T17:05:59.400Z,6.90
2023-04-21T17:11:01.133Z,6.60
2023-04-21T17:16:03.028Z,6.90
2023-04-21T17:21:06.295Z,6.72
2023-04-21T17:26:09.419Z,7.22
2023-04-21T17:31:16.161Z,7.43
2023-04-21T17:36:18.605Z,6.72
2023-04-21T17:41:20.252Z,6.65
2023-04-21T17:46:24.909Z,6.63
2023-04-21T17:51:28.539Z,6.60
2023-04-21T17:56:30.206Z,7.15
2023-04-21T18:01:31.904Z,7.95
2023-04-21T18:06:34.443Z,7.15
2023-04-21T18:11:36.069Z,7.43
2023-04-21T18:16:37.777Z,9.10
2023-04-21T18:21:39.500Z,9.23
2023-04-21T18:26:41.155Z,7.45
2023-04-21T18:31:42.814Z,9.13
2023-04-21T18:36:44.472Z,8.82
2023-04-21T18:41:48.481Z,8.70
2023-04-21T18:46:50.268Z,10.05
2023-04-21T18:51:52.142Z,10.63
2023-04-21T18:56:53.862Z,10.02
2023-04-21T19:01:55.945Z,8.60
2023-04-21T19:06:57.630Z,8.48
2023-04-21T19:11:59.336Z,8.48
2023-04-21T19:17:00.961Z,8.73
2023-04-21T19:22:04.251Z,7.47
2023-04-21T19:27:06.558Z,8.10
2023-04-21T19:32:08.296Z,9.52
2023-04-21T19:37:10.160Z,8.30
2023-04-21T19:42:11.910Z,8.50
2023-04-21T19:47:13.638Z,8.95
2023-04-21T19:52:15.231Z,7.68
2023-04-21T19:57:17.551Z,9.73
2023-04-21T20:02:19.693Z,9.65
2023-04-21T20:07:21.511Z,9.73
2023-04-21T20:12:23.173Z,11.18
2023-04-21T20:17:24.878Z,10.57
2023-04-21T20:22:26.489Z,11.68
2023-04-21T20:27:28.106Z,14.38
2023-04-21T20:32:29.778Z,11.45
2023-04-21T20:37:33.580Z,12.77
2023-04-21T20:42:35.266Z,12.75
2023-04-21T20:47:37.092Z,13.75
2023-04-21T20:52:38.760Z,11.93
2023-04-21T20:57:40.405Z,11.98
2023-04-21T21:02:42.366Z,12.00
2023-04-21T21:07:44.098Z,11.35
2023-04-21T21:12:45.814Z,12.88
2023-04-21T21:17:47.507Z,11.35
2023-04-21T21:22:49.196Z,12.15
2023-04-21T21:27:50.847Z,12.18
2023-04-21T21:32:53.969Z,13.13
2023-04-21T21:37:55.626Z,13.63
2023-04-21T21:42:57.239Z,13.25
2023-04-21T21:47:58.990Z,12.45
2023-04-21T21:53:00.634Z,13.05
2023-04-21T21:58:04.021Z,12.18
2023-04-21T22:03:06.339Z,12.90
2023-04-21T22:08:08.082Z,12.82
2023-04-21T22:13:10.141Z,12.00
2023-04-21T22:18:11.783Z,11.88
2023-04-21T22:23:13.483Z,10.75
2023-04-21T22:28:15.088Z,10.45
2023-04-21T22:33:16.730Z,11.82
2023-04-21T22:38:18.394Z,11.35
2023-04-21T22:43:20.070Z,9.65
2023-04-21T22:48:21.736Z,12.07
2023-04-21T22:53:23.331Z,11.25
2023-04-21T22:58:26.302Z,11.23
2023-04-21T23:03:28.093Z,12.02
2023-04-21T23:08:30.031Z,10.88
2023-04-21T23:13:34.757Z,11.27
2023-04-21T23:18:36.438Z,11.40
2023-04-21T23:23:38.086Z,10.43
2023-04-21T23:28:39.707Z,10.82
2023-04-21T23:33:41.326Z,10.32
2023-04-21T23:38:42.955Z,10.93
2023-04-21T23:43:44.706Z,9.77
2023-04-21T23:48:46.329Z,11.07
2023-04-21T23:53:48.010Z,10.52
2023-04-21T23:58:49.768Z,11.75
